Bromide, Oklahoma
Current Conditions -  °F | °C
As of 12:15 PM on Wednesday 26 Nov 2014 (Local Time) from KAQR Reporting Station
Scattered Clouds Scattered Clouds  
Wind Chill: 13°   Ceiling: Unl
Heat Index: 13°   Visibility: 10mi
Dew Point: -2°   Wind: 13mph
Humidity: 36%   Direction: 350°N
Pressure: 30.16"   Gusts: 21mph
Location:  34.42°N, 96.5°W
Report Text: KAQR 261815Z AUTO 35011G18KT 10SM SCT120 13/M02 A3016 RMK AO2
Loading
Personal Weather Stations






























Interactive Weather Map New forecast layout! Learn more

10-Day Weather Forecast

Advertisements
Track Severe Weather on mobile